»·PEaware :: N24AS KDLS-KTTD

N24AS :: KDLS-KTTD

FLIGHT INFORMATION

Flight Status: Arrived
Operator: Privately registered:
United States
More flights under this callsign
Pilot: Andrew S. (20703)
Aircraft: Unknown
(DA62)
More flights by this aircraft type
Origin: KDLS Columbia Gorge Regl/The Dalle
United States
Destination: KTTD Portland-Troutdale
United States
More flights between these airports :: More routes between these airports
Route: DALLS1 LTJ BTG
File this flight plan on PilotEdge
Remarks:
Altitude:
(Current/Filed)
8,000ft
Speed:
(Current/Filed)
175kts
Departed: 14-Mar-19 08:06 PM
Arrived: 14-Mar-19 08:38 PM
Distance/Time
Traveled:
52nm/0:32
Distance/Time
To Go:
Arrived

Flight Plot

Page will automatically refresh every two minutes.

Flight plan parsing failed; only flown route is shown


Map Options




Map Legend


Flown Route
Filed Route
Departure Airport
Arrival Airport
Navaid (VOR, NDB)
Fix

Horizontal Profiles

Position Reports

Time Latitude Longitude Heading Altitude Ground
Speed
14-Mar-19 19:48 45.618367 -121.172033 327 220ft 0kts
14-Mar-19 19:49 45.618367 -121.172033 327 220ft 0kts
14-Mar-19 19:50 45.618367 -121.172033 327 220ft 0kts
14-Mar-19 19:51 45.618367 -121.172033 327 220ft 0kts
14-Mar-19 19:52 45.618367 -121.172033 327 220ft 0kts
14-Mar-19 19:53 45.618368 -121.172034 327 220ft 0kts
14-Mar-19 19:54 45.618368 -121.172034 327 220ft 0kts
14-Mar-19 19:55 45.618368 -121.172034 327 220ft 0kts
14-Mar-19 19:56 45.618368 -121.172034 327 220ft 0kts
14-Mar-19 19:57 45.618368 -121.172034 327 220ft 0kts
14-Mar-19 19:58 45.618368 -121.172034 327 220ft 0kts
14-Mar-19 19:59 45.618368 -121.172034 327 220ft 0kts
14-Mar-19 20:00 45.618368 -121.172034 327 220ft 0kts
14-Mar-19 20:01 45.618389 -121.172053 327 220ft 1kts
14-Mar-19 20:02 45.619089 -121.172625 343 219ft 11kts
14-Mar-19 20:03 45.620916 -121.173015 276 215ft 9kts
14-Mar-19 20:04 45.622028 -121.176006 53 210ft 17kts
14-Mar-19 20:05 45.620562 -121.170400 144 219ft 72kts
14-Mar-19 20:06 45.599579 -121.149859 145 1140ft 107kts
14-Mar-19 20:07 45.574417 -121.125383 144 2402ft 110kts
14-Mar-19 20:08 45.545013 -121.121331 185 3684ft 111kts
14-Mar-19 20:09 45.520217 -121.110641 90 4951ft 113kts
14-Mar-19 20:10 45.548389 -121.096506 358 6184ft 125kts
14-Mar-19 20:11 45.582828 -121.097548 356 7530ft 118kts
14-Mar-19 20:12 45.621633 -121.100717 329 7966ft 168kts
14-Mar-19 20:13 45.628656 -121.163399 267 7959ft 174kts
14-Mar-19 20:14 45.632900 -121.233409 273 7958ft 177kts
14-Mar-19 20:15 45.638992 -121.303503 273 7958ft 176kts
14-Mar-19 20:16 45.645172 -121.372635 273 7958ft 174kts
14-Mar-19 20:17 45.648706 -121.441384 259 7958ft 172kts
14-Mar-19 20:18 45.641951 -121.508285 270 7965ft 173kts
14-Mar-19 20:19 45.650979 -121.575683 290 7941ft 172kts
14-Mar-19 20:20 45.660097 -121.643243 277 7919ft 175kts
14-Mar-19 20:21 45.664428 -121.713209 279 7904ft 176kts
14-Mar-19 20:22 45.668864 -121.765019 280 7904ft 176kts
14-Mar-19 20:23 45.674266 -121.822741 281 7904ft 176kts
14-Mar-19 20:24 45.680989 -121.892196 281 7904ft 176kts
14-Mar-19 20:25 45.685554 -121.962472 252 7680ft 190kts
14-Mar-19 20:26 45.662456 -122.033066 249 6834ft 201kts
14-Mar-19 20:27 45.639789 -122.107200 248 5822ft 200kts
14-Mar-19 20:28 45.617958 -122.178416 248 4997ft 180kts
14-Mar-19 20:29 45.598983 -122.240149 248 4994ft 163kts
14-Mar-19 20:30 45.579168 -122.304535 247 4178ft 184kts
14-Mar-19 20:31 45.563180 -122.373840 267 3275ft 185kts
14-Mar-19 20:32 45.560657 -122.445705 268 2474ft 173kts
14-Mar-19 20:33 45.550400 -122.492658 182 1409ft 102kts
14-Mar-19 20:34 45.548674 -122.462307 87 719ft 79kts
14-Mar-19 20:35 45.548799 -122.432315 90 438ft 74kts
14-Mar-19 20:36 45.549282 -122.405483 88 30ft 45kts
14-Mar-19 20:37 45.550284 -122.400569 42 32ft 0kts
14-Mar-19 20:38 45.550284 -122.400569 42 32ft 0kts
14-Mar-19 20:39 45.550285 -122.400568 42 32ft 0kts

Navigation Log

Ident Type
Flight plan parsing failed, navigation log unavailable